Neuburg — 5BQJ2 — position and weather

sailwx.info

Track history (hours):
 
Tides and Currents Weather Stations Pressure Air Temp Water Temp Dewpoint Dewpoint Depression Visibility Wind Speed Wind Dir Waves Ship Positions

Neuburg

Last reported at 2016-Feb-11 00:30 UTC. Time now 2016-Feb-11 08:44 UTC.
Position N 43°17' E 007°11'.

Length 142 m; draft 6 m.

Type: Cargo ship. MMSI: 212740000.

Date/timePositionNaut miles runAvg speedWind from/ knotsBaromVisibWave heightAir tempDewpointWater temp
2016-Feb-11 00:30N 43°17' E 007°11'1515.4
2016-Feb-10 23:32N 43°26' E 007°27'4814.5
2016-Feb-10 20:13N 43°54' E 008°21'913.2
2016-Feb-10 19:33N 44°00' E 008°29'1414.1
2016-Feb-10 18:33N 44°11' E 008°42'1413.5
2016-Feb-10 17:33N 44°22' E 008°53'2 2.2
2016-Feb-10 16:28N 44°24' E 008°53'0 0.0
2016-Feb-10 15:31N 44°24' E 008°53'0 0.0
2016-Feb-10 14:31N 44°24' E 008°53'0 0.0
2016-Feb-10 13:28N 44°24' E 008°53'0 0.0
2016-Feb-10 12:31N 44°24' E 008°53'0 0.0
2016-Feb-10 11:33N 44°24' E 008°53'6 6.0
2016-Feb-10 10:33N 44°19' E 008°57'1313.0
2016-Feb-10 09:33N 44°10' E 008°44'1414.1
2016-Feb-10 08:33N 44°01' E 008°30'1514.6
2016-Feb-10 07:33N 43°51' E 008°15'3215.7
2016-Feb-10 05:32N 43°31' E 007°40'1716.4
2016-Feb-10 04:31N 43°20' E 007°23'22315.6
2016-Feb-09 14:13N 41°34' E 002°57'1116.6
2016-Feb-09 13:33N 41°29' E 002°44'1716.9
2016-Feb-09 12:33N 41°21' E 002°24'1010.3
2016-Feb-09 11:33N 41°21' E 002°10'0 0.4
2016-Feb-09 10:15N 41°21' E 002°10'0 0.0
2016-Feb-09 09:33N 41°21' E 002°10'0 0.0
2016-Feb-09 08:30N 41°21' E 002°10'4 0.9
2016-Feb-09 03:28N 41°17' E 002°11'1213.5
2016-Feb-09 02:33N 41°06' E 002°05'1414.2
2016-Feb-09 01:33N 40°53' E 001°56'1414.1
2016-Feb-09 00:34N 40°41' E 001°47'1414.2
2016-Feb-08 23:33N 40°28' E 001°39'1414.2
2016-Feb-08 22:33N 40°15' E 001°30'1514.7
2016-Feb-08 21:33N 40°02' E 001°21'1514.7
2016-Feb-08 20:32N 39°49' E 001°13'128 8.0
2016-Feb-08 04:33N 38°05' W 000°23'1110.9
2016-Feb-08 03:34N 37°54' W 000°25'1313.0
2016-Feb-08 02:33N 37°41' W 000°27'1614.6
2016-Feb-08 01:26N 37°27' W 000°38'1415.0
2016-Feb-08 00:32N 37°19' W 000°51'22115.6
2016-Feb-07 10:23N 35°60' W 005°09'1619.6
2016-Feb-07 09:34N 35°57' W 005°28'  
2016-Feb-04 06:26N 28°08' W 015°25'0 0.0
2016-Feb-04 05:26N 28°08' W 015°25'0 0.0
2016-Feb-04 04:26N 28°08' W 015°25'0 0.0
2016-Feb-04 03:26N 28°08' W 015°25'0 0.0
2016-Feb-04 02:33N 28°08' W 015°25'4 3.7
2016-Feb-04 01:33N 28°08' W 015°21'1312.8
2016-Feb-04 00:33N 28°13' W 015°08'1110.8
2016-Feb-03 23:33N 28°20' W 014°58'1313.1
2016-Feb-03 22:33N 28°26' W 014°45'1513.3
2016-Feb-03 21:26N 28°33' W 014°30'1213.4
2016-Feb-03 20:33N 28°39' W 014°18'1413.7
2016-Feb-03 19:34N 28°45' W 014°04'1413.5
2016-Feb-03 18:33N 28°48' W 013°49'1413.8
2016-Feb-03 17:33N 28°55' W 013°36'5 0.6
2016-Feb-03 10:30N 28°58' W 013°32'0 0.0
2016-Feb-03 09:33N 28°58' W 013°32'0 0.0
2016-Feb-03 08:28N 28°58' W 013°32'2 1.8
2016-Feb-03 07:33N 28°57' W 013°32'9 8.5
2016-Feb-03 06:33N 28°52' W 013°41'1312.7
2016-Feb-03 05:33N 28°48' W 013°54'1515.1
2016-Feb-03 04:33N 28°43' W 014°11'1515.1
2016-Feb-03 03:34N 28°36' W 014°26'1515.0
2016-Feb-03 02:33N 28°28' W 014°41'1514.9
2016-Feb-03 01:33N 28°21' W 014°56'1515.0
2016-Feb-03 00:33N 28°14' W 015°10'1414.3
2016-Feb-02 23:33N 28°07' W 015°25'1 0.7
2016-Feb-02 22:31N 28°08' W 015°25'0 0.0
2016-Feb-02 21:31N 28°08' W 015°25'0 0.0
2016-Feb-02 20:31N 28°08' W 015°25'0 0.0
2016-Feb-02 19:34N 28°08' W 015°25'0 0.0
2016-Feb-02 18:30N 28°08' W 015°25'5 5.1
2016-Feb-02 17:33N 28°13' W 015°24'1515.3
2016-Feb-02 16:33N 28°18' W 015°40'1515.3
2016-Feb-02 15:33N 28°23' W 015°56'1515.3
2016-Feb-02 14:33N 28°28' W 016°13'1 0.9
2016-Feb-02 13:20N 28°29' W 016°13'0 0.0
2016-Feb-02 11:32N 28°29' W 016°13'0 0.0
2016-Feb-02 10:31N 28°29' W 016°13'0 0.0
2016-Feb-02 08:23N 28°29' W 016°13'0 0.0
2016-Feb-02 07:33N 28°29' W 016°13'2 2.0
2016-Feb-02 06:32N 28°29' W 016°11'1515.6
2016-Feb-02 05:33N 28°37' W 015°57'1616.5
2016-Feb-02 04:33N 28°48' W 015°42'1716.5
2016-Feb-02 03:33N 28°59' W 015°28'1917.0
2016-Feb-02 02:25N 29°12' W 015°12'13416.8
2016-Feb-01 18:29N 30°38' W 013°14'5616.6
2016-Feb-01 15:07N 31°15' W 012°25'1116.6
2016-Feb-01 14:28N 31°22' W 012°16'7116.4
2016-Feb-01 10:07N 32°08' W 011°12'5016.7
2016-Feb-01 07:09N 32°41' W 010°28'  
Track history (hours):
 
Tides and Currents Weather Stations Pressure Air Temp Water Temp Dewpoint Dewpoint Depression Visibility Wind Speed Wind Dir Waves Ship Positions

Neuburg

Last reported at 2016-Feb-11 00:30 UTC. Time now 2016-Feb-11 08:44 UTC.
Position N 43°17' E 007°11'.

Length 142 m; draft 6 m.

Type: Cargo ship. MMSI: 212740000.

Date/timePositionNaut miles runAvg speedWind from/ knotsBaromVisibWave heightAir tempDewpointWater temp
2016-Feb-11 00:30N 43°17' E 007°11'1515.4
2016-Feb-10 23:32N 43°26' E 007°27'4814.5
2016-Feb-10 20:13N 43°54' E 008°21'913.2
2016-Feb-10 19:33N 44°00' E 008°29'1414.1
2016-Feb-10 18:33N 44°11' E 008°42'1413.5
2016-Feb-10 17:33N 44°22' E 008°53'2 2.2
2016-Feb-10 16:28N 44°24' E 008°53'0 0.0
2016-Feb-10 15:31N 44°24' E 008°53'0 0.0
2016-Feb-10 14:31N 44°24' E 008°53'0 0.0
2016-Feb-10 13:28N 44°24' E 008°53'0 0.0
2016-Feb-10 12:31N 44°24' E 008°53'0 0.0
2016-Feb-10 11:33N 44°24' E 008°53'6 6.0
2016-Feb-10 10:33N 44°19' E 008°57'1313.0
2016-Feb-10 09:33N 44°10' E 008°44'1414.1
2016-Feb-10 08:33N 44°01' E 008°30'1514.6
2016-Feb-10 07:33N 43°51' E 008°15'3215.7
2016-Feb-10 05:32N 43°31' E 007°40'1716.4
2016-Feb-10 04:31N 43°20' E 007°23'22315.6
2016-Feb-09 14:13N 41°34' E 002°57'1116.6
2016-Feb-09 13:33N 41°29' E 002°44'1716.9
2016-Feb-09 12:33N 41°21' E 002°24'1010.3
2016-Feb-09 11:33N 41°21' E 002°10'0 0.4
2016-Feb-09 10:15N 41°21' E 002°10'0 0.0
2016-Feb-09 09:33N 41°21' E 002°10'0 0.0
2016-Feb-09 08:30N 41°21' E 002°10'4 0.9
2016-Feb-09 03:28N 41°17' E 002°11'1213.5
2016-Feb-09 02:33N 41°06' E 002°05'1414.2
2016-Feb-09 01:33N 40°53' E 001°56'1414.1
2016-Feb-09 00:34N 40°41' E 001°47'1414.2
2016-Feb-08 23:33N 40°28' E 001°39'1414.2
2016-Feb-08 22:33N 40°15' E 001°30'1514.7
2016-Feb-08 21:33N 40°02' E 001°21'1514.7
2016-Feb-08 20:32N 39°49' E 001°13'128 8.0
2016-Feb-08 04:33N 38°05' W 000°23'1110.9
2016-Feb-08 03:34N 37°54' W 000°25'1313.0
2016-Feb-08 02:33N 37°41' W 000°27'1614.6
2016-Feb-08 01:26N 37°27' W 000°38'1415.0
2016-Feb-08 00:32N 37°19' W 000°51'22115.6
2016-Feb-07 10:23N 35°60' W 005°09'1619.6
2016-Feb-07 09:34N 35°57' W 005°28'  
2016-Feb-04 06:26N 28°08' W 015°25'0 0.0
2016-Feb-04 05:26N 28°08' W 015°25'0 0.0
2016-Feb-04 04:26N 28°08' W 015°25'0 0.0
2016-Feb-04 03:26N 28°08' W 015°25'0 0.0
2016-Feb-04 02:33N 28°08' W 015°25'4 3.7
2016-Feb-04 01:33N 28°08' W 015°21'1312.8
2016-Feb-04 00:33N 28°13' W 015°08'1110.8
2016-Feb-03 23:33N 28°20' W 014°58'1313.1
2016-Feb-03 22:33N 28°26' W 014°45'1513.3
2016-Feb-03 21:26N 28°33' W 014°30'1213.4
2016-Feb-03 20:33N 28°39' W 014°18'1413.7
2016-Feb-03 19:34N 28°45' W 014°04'1413.5
2016-Feb-03 18:33N 28°48' W 013°49'1413.8
2016-Feb-03 17:33N 28°55' W 013°36'5 0.6
2016-Feb-03 10:30N 28°58' W 013°32'0 0.0
2016-Feb-03 09:33N 28°58' W 013°32'0 0.0
2016-Feb-03 08:28N 28°58' W 013°32'2 1.8
2016-Feb-03 07:33N 28°57' W 013°32'9 8.5
2016-Feb-03 06:33N 28°52' W 013°41'1312.7
2016-Feb-03 05:33N 28°48' W 013°54'1515.1
2016-Feb-03 04:33N 28°43' W 014°11'1515.1
2016-Feb-03 03:34N 28°36' W 014°26'1515.0
2016-Feb-03 02:33N 28°28' W 014°41'1514.9
2016-Feb-03 01:33N 28°21' W 014°56'1515.0
2016-Feb-03 00:33N 28°14' W 015°10'1414.3
2016-Feb-02 23:33N 28°07' W 015°25'1 0.7
2016-Feb-02 22:31N 28°08' W 015°25'0 0.0
2016-Feb-02 21:31N 28°08' W 015°25'0 0.0
2016-Feb-02 20:31N 28°08' W 015°25'0 0.0
2016-Feb-02 19:34N 28°08' W 015°25'0 0.0
2016-Feb-02 18:30N 28°08' W 015°25'5 5.1
2016-Feb-02 17:33N 28°13' W 015°24'1515.3
2016-Feb-02 16:33N 28°18' W 015°40'1515.3
2016-Feb-02 15:33N 28°23' W 015°56'1515.3
2016-Feb-02 14:33N 28°28' W 016°13'1 0.9
2016-Feb-02 13:20N 28°29' W 016°13'0 0.0
2016-Feb-02 11:32N 28°29' W 016°13'0 0.0
2016-Feb-02 10:31N 28°29' W 016°13'0 0.0
2016-Feb-02 08:23N 28°29' W 016°13'0 0.0
2016-Feb-02 07:33N 28°29' W 016°13'2 2.0
2016-Feb-02 06:32N 28°29' W 016°11'1515.6
2016-Feb-02 05:33N 28°37' W 015°57'1616.5
2016-Feb-02 04:33N 28°48' W 015°42'1716.5
2016-Feb-02 03:33N 28°59' W 015°28'1917.0
2016-Feb-02 02:25N 29°12' W 015°12'13416.8
2016-Feb-01 18:29N 30°38' W 013°14'5616.6
2016-Feb-01 15:07N 31°15' W 012°25'1116.6
2016-Feb-01 14:28N 31°22' W 012°16'7116.4
2016-Feb-01 10:07N 32°08' W 011°12'5016.7
2016-Feb-01 07:09N 32°41' W 010°28'  

Dump ship's entire track history